createdAt,value
2019-06-27T00:01:01.828Z,2.20
2019-06-27T00:03:34.488Z,2.30
2019-06-27T00:06:06.724Z,2.20
2019-06-27T00:08:43.878Z,2.30
2019-06-27T00:11:16.144Z,2.33
2019-06-27T00:13:48.385Z,2.30
2019-06-27T00:16:20.772Z,2.40
2019-06-27T00:18:53.477Z,2.37
2019-06-27T00:21:25.976Z,2.60
2019-06-27T00:23:58.491Z,2.70
2019-06-27T00:26:30.745Z,2.70
2019-06-27T00:29:04.064Z,2.63
2019-06-27T00:31:36.299Z,2.80
2019-06-27T00:34:08.648Z,2.90
2019-06-27T00:36:41.775Z,3.00
2019-06-27T00:39:14.008Z,3.23
2019-06-27T00:41:46.169Z,3.10
2019-06-27T00:44:27.204Z,3.20
2019-06-27T00:47:01.430Z,3.23
2019-06-27T00:49:33.777Z,2.80
2019-06-27T00:52:07.235Z,2.95
2019-06-27T00:54:39.880Z,2.90
2019-06-27T00:57:14.399Z,3.10
2019-06-27T00:59:47.240Z,3.47
2019-06-27T01:02:26.428Z,3.70
2019-06-27T01:05:04.831Z,3.47
2019-06-27T01:07:37.134Z,3.30
2019-06-27T01:10:12.164Z,3.80
2019-06-27T01:12:44.515Z,3.63
2019-06-27T01:15:19.232Z,3.57
2019-06-27T01:17:51.611Z,3.37
2019-06-27T01:20:23.959Z,3.40
2019-06-27T01:22:56.235Z,3.33
2019-06-27T01:25:29.766Z,3.70
2019-06-27T01:28:02.058Z,3.37
2019-06-27T01:30:34.335Z,3.20
2019-06-27T01:33:06.710Z,3.10
2019-06-27T01:35:38.976Z,3.17
2019-06-27T01:38:11.348Z,2.77
2019-06-27T01:40:43.546Z,2.78
2019-06-27T01:43:23.391Z,2.20
2019-06-27T01:45:58.270Z,2.57
2019-06-27T01:48:32.209Z,2.70
2019-06-27T01:51:04.382Z,2.20
2019-06-27T01:53:36.673Z,2.27
2019-06-27T01:56:08.890Z,2.60
2019-06-27T01:58:41.852Z,2.72
2019-06-27T02:04:39.506Z,2.70
2019-06-27T02:07:16.836Z,2.63
2019-06-27T02:09:54.195Z,3.03
2019-06-27T02:12:31.448Z,2.70
2019-06-27T02:15:08.107Z,2.87
2019-06-27T02:17:45.445Z,3.17
2019-06-27T02:20:17.722Z,3.13
2019-06-27T02:22:50.087Z,3.30
2019-06-27T02:25:23.649Z,3.30
2019-06-27T02:28:03.764Z,3.80
2019-06-27T02:30:41.636Z,4.00
2019-06-27T02:33:14.020Z,3.73
2019-06-27T02:35:46.311Z,4.40
2019-06-27T02:38:18.707Z,3.60
2019-06-27T02:40:51.005Z,3.47
2019-06-27T02:43:23.369Z,3.20
2019-06-27T02:45:55.589Z,2.90
2019-06-27T02:48:27.971Z,3.67
2019-06-27T02:51:00.266Z,3.30
2019-06-27T02:53:32.644Z,2.93
2019-06-27T02:56:04.866Z,3.47
2019-06-27T02:58:37.230Z,4.23
2019-06-27T03:01:09.625Z,6.67
2019-06-27T03:03:42.128Z,5.73
2019-06-27T03:06:14.519Z,5.33
2019-06-27T03:08:46.795Z,5.67
2019-06-27T03:11:18.976Z,5.53
2019-06-27T03:13:51.243Z,7.50
2019-06-27T03:16:23.454Z,7.60
2019-06-27T03:18:55.701Z,8.10
2019-06-27T03:21:27.928Z,9.03
2019-06-27T03:24:00.189Z,9.07
2019-06-27T03:26:32.440Z,9.17
2019-06-27T03:29:04.702Z,10.97
2019-06-27T03:31:36.954Z,12.40
2019-06-27T03:34:09.306Z,10.47
2019-06-27T03:36:41.514Z,12.55
2019-06-27T03:39:13.728Z,11.40
2019-06-27T03:41:45.964Z,11.13
2019-06-27T03:44:18.220Z,11.27
2019-06-27T03:46:50.405Z,10.87
2019-06-27T03:49:22.620Z,10.97
2019-06-27T03:51:54.901Z,9.73
2019-06-27T03:54:27.090Z,10.20
2019-06-27T03:56:59.361Z,9.83
2019-06-27T03:59:31.605Z,12.03
2019-06-27T04:02:03.828Z,10.93
2019-06-27T04:04:41.033Z,11.60
2019-06-27T04:07:18.087Z,12.03
2019-06-27T04:09:50.285Z,11.67
2019-06-27T04:12:22.915Z,10.10
2019-06-27T04:14:55.260Z,9.53
2019-06-27T04:17:27.593Z,10.70
2019-06-27T04:19:59.856Z,12.80
2019-06-27T04:22:32.191Z,11.57
2019-06-27T04:25:04.598Z,11.37
2019-06-27T04:27:36.909Z,12.23
2019-06-27T04:30:08.789Z,10.87
2019-06-27T04:32:41.057Z,11.30
2019-06-27T04:35:14.751Z,10.80
2019-06-27T04:37:48.177Z,11.73
2019-06-27T04:40:23.244Z,11.97
2019-06-27T04:42:55.470Z,11.63
2019-06-27T04:45:27.643Z,12.67
2019-06-27T04:47:59.925Z,11.77
2019-06-27T04:50:33.113Z,12.23
2019-06-27T04:53:05.393Z,12.30
2019-06-27T04:55:37.627Z,12.83
2019-06-27T04:58:09.960Z,12.50
2019-06-27T05:00:42.235Z,12.83
2019-06-27T05:03:15.521Z,12.87
2019-06-27T05:05:47.806Z,12.50
2019-06-27T05:08:20.061Z,13.53
2019-06-27T05:10:52.271Z,13.07
2019-06-27T05:13:24.784Z,13.87
2019-06-27T05:15:57.317Z,14.70
2019-06-27T05:18:29.643Z,12.83
2019-06-27T05:21:01.835Z,12.57
2019-06-27T05:23:34.195Z,12.90
2019-06-27T05:26:06.467Z,13.32
2019-06-27T05:28:38.767Z,10.83
2019-06-27T05:31:11.281Z,10.80
2019-06-27T05:33:43.767Z,10.33
2019-06-27T05:36:16.064Z,9.17
2019-06-27T05:38:48.367Z,9.93
2019-06-27T05:41:20.535Z,9.80
2019-06-27T05:43:52.895Z,14.63
2019-06-27T05:46:25.125Z,13.67
2019-06-27T05:48:57.420Z,12.90
2019-06-27T05:51:29.671Z,9.83
2019-06-27T05:54:01.952Z,9.37
2019-06-27T05:56:34.387Z,9.17
2019-06-27T05:59:06.654Z,10.17
2019-06-27T06:01:38.864Z,10.23
2019-06-27T06:04:11.151Z,10.10
2019-06-27T06:06:43.365Z,7.83
2019-06-27T06:09:15.652Z,8.47
2019-06-27T06:11:47.814Z,7.83
2019-06-27T06:14:20.041Z,9.30
2019-06-27T06:16:52.264Z,7.97
2019-06-27T06:19:24.526Z,8.03
2019-06-27T06:21:56.755Z,7.40
2019-06-27T06:24:29.080Z,8.10
2019-06-27T06:27:01.295Z,8.98
2019-06-27T06:29:33.683Z,9.90
2019-06-27T06:32:06.683Z,9.77
2019-06-27T06:34:39.136Z,11.30
2019-06-27T06:37:11.405Z,11.00
2019-06-27T06:39:43.670Z,10.60
2019-06-27T06:42:15.830Z,11.20
2019-06-27T06:44:48.818Z,11.10
2019-06-27T06:47:21.022Z,11.63
2019-06-27T06:49:53.286Z,11.20
2019-06-27T06:52:25.469Z,10.33
2019-06-27T06:54:58.546Z,11.53
2019-06-27T06:57:30.696Z,11.53
2019-06-27T07:00:05.467Z,9.30
2019-06-27T07:02:37.808Z,9.23
2019-06-27T07:05:10.613Z,9.90
2019-06-27T07:07:43.258Z,8.03
2019-06-27T07:10:16.024Z,9.70
2019-06-27T07:12:48.249Z,8.93
2019-06-27T07:15:23.351Z,7.60
2019-06-27T07:17:56.544Z,7.87
2019-06-27T07:20:28.897Z,8.30
2019-06-27T07:23:01.143Z,7.50
2019-06-27T07:25:33.588Z,7.13
2019-06-27T07:28:05.820Z,6.50
2019-06-27T07:30:38.036Z,6.70
2019-06-27T07:33:10.466Z,7.83
2019-06-27T07:35:42.819Z,7.80
2019-06-27T07:38:14.995Z,8.37
2019-06-27T07:40:47.257Z,8.17
2019-06-27T07:43:19.475Z,7.80
2019-06-27T07:45:51.716Z,8.10
2019-06-27T07:48:23.946Z,7.23
2019-06-27T07:50:56.235Z,6.90
2019-06-27T07:53:28.435Z,6.77
2019-06-27T07:56:02.219Z,6.63
2019-06-27T07:58:34.377Z,6.10
2019-06-27T08:01:06.576Z,5.93
2019-06-27T08:03:38.783Z,4.80
2019-06-27T08:06:11.029Z,5.40
2019-06-27T08:08:43.284Z,5.30
2019-06-27T08:11:15.533Z,4.70
2019-06-27T08:13:47.697Z,4.77
2019-06-27T08:16:19.920Z,4.23
2019-06-27T08:18:52.163Z,4.47
2019-06-27T08:21:24.496Z,4.20
2019-06-27T08:23:56.656Z,3.30
2019-06-27T08:26:29.372Z,3.80
2019-06-27T08:29:01.628Z,4.17
2019-06-27T08:31:47.455Z,3.80
2019-06-27T08:34:23.181Z,3.40
2019-06-27T08:36:55.404Z,3.97
2019-06-27T08:39:27.583Z,3.80
2019-06-27T08:41:59.811Z,3.63
2019-06-27T08:44:31.985Z,3.40
2019-06-27T08:47:04.252Z,3.47
2019-06-27T08:49:36.497Z,3.77
2019-06-27T08:52:08.790Z,3.67
2019-06-27T08:54:40.988Z,3.60
2019-06-27T08:57:20.420Z,3.20
2019-06-27T08:59:52.603Z,2.87
2019-06-27T09:02:24.872Z,2.73
2019-06-27T09:04:57.103Z,2.20
2019-06-27T09:07:29.319Z,2.53
2019-06-27T09:10:01.617Z,2.33
2019-06-27T09:12:35.892Z,2.30
2019-06-27T09:15:07.755Z,2.60
2019-06-27T09:17:40.213Z,3.20
2019-06-27T09:20:12.408Z,2.70
2019-06-27T09:22:44.658Z,3.10
2019-06-27T09:25:16.937Z,2.50
2019-06-27T09:27:49.234Z,2.42
2019-06-27T09:30:22.457Z,2.60
2019-06-27T09:32:54.778Z,2.73
2019-06-27T09:35:27.029Z,2.40
2019-06-27T09:37:59.422Z,1.93
2019-06-27T09:40:37.984Z,2.47
2019-06-27T09:43:10.289Z,2.93
2019-06-27T09:45:42.532Z,2.50
2019-06-27T09:48:14.787Z,2.30
2019-06-27T09:50:46.996Z,2.30
2019-06-27T09:53:19.382Z,2.13
2019-06-27T09:55:51.603Z,2.30
2019-06-27T10:01:40.854Z,2.40
2019-06-27T10:04:15.551Z,2.57
2019-06-27T10:06:47.773Z,2.53
2019-06-27T10:09:20.167Z,2.73
2019-06-27T10:11:53.357Z,3.10
2019-06-27T10:14:25.856Z,2.57
2019-06-27T10:16:58.791Z,2.40
2019-06-27T10:19:32.034Z,2.60
2019-06-27T10:22:04.326Z,2.90
2019-06-27T10:24:56.352Z,3.03
2019-06-27T10:27:43.671Z,3.00
2019-06-27T10:30:25.924Z,3.23
2019-06-27T10:33:00.068Z,2.57
2019-06-27T10:35:32.763Z,3.07
2019-06-27T10:38:04.980Z,3.10
2019-06-27T10:40:37.328Z,2.72
2019-06-27T10:43:09.543Z,2.45
2019-06-27T10:45:41.853Z,2.62
2019-06-27T10:48:14.137Z,2.60
2019-06-27T10:50:46.700Z,2.50
2019-06-27T10:53:18.983Z,2.50
2019-06-27T10:55:51.214Z,2.47
2019-06-27T10:58:23.425Z,2.20
2019-06-27T11:00:55.708Z,2.13
2019-06-27T11:03:27.891Z,2.30
2019-06-27T11:06:00.189Z,2.40
2019-06-27T11:08:32.379Z,2.77
2019-06-27T11:11:04.679Z,2.50
2019-06-27T11:13:36.896Z,2.60
2019-06-27T11:16:09.189Z,2.30
2019-06-27T11:18:46.445Z,2.33
2019-06-27T11:21:22.456Z,2.40
2019-06-27T11:23:55.163Z,3.20
2019-06-27T11:26:27.892Z,2.57
2019-06-27T11:29:00.701Z,2.33
2019-06-27T11:31:33.037Z,2.70
2019-06-27T11:34:05.313Z,2.40
2019-06-27T11:36:37.627Z,2.70
2019-06-27T11:39:10.044Z,2.53
2019-06-27T11:41:42.323Z,2.42
2019-06-27T11:44:14.511Z,2.50
2019-06-27T11:46:47.744Z,2.27
2019-06-27T11:49:19.996Z,2.20
2019-06-27T11:51:52.665Z,2.40
2019-06-27T11:54:28.264Z,2.67
2019-06-27T11:57:00.605Z,2.50
2019-06-27T11:59:34.453Z,2.20
2019-06-27T12:02:08.615Z,2.40
2019-06-27T12:04:41.108Z,2.60
2019-06-27T12:07:13.409Z,2.10
2019-06-27T12:09:46.012Z,2.50
2019-06-27T12:12:20.269Z,1.97
2019-06-27T12:14:56.381Z,2.23
2019-06-27T12:17:29.389Z,2.30
2019-06-27T12:20:02.635Z,2.60
2019-06-27T12:22:35.108Z,2.70
2019-06-27T12:25:28.505Z,2.70
2019-06-27T12:28:28.033Z,2.53
2019-06-27T12:31:10.334Z,2.50
2019-06-27T12:34:05.568Z,2.30
2019-06-27T12:36:39.449Z,2.73
2019-06-27T12:39:12.382Z,2.50
2019-06-27T12:41:44.747Z,2.53
2019-06-27T12:44:17.224Z,2.70
2019-06-27T12:46:50.422Z,2.37
2019-06-27T12:49:36.947Z,2.50
2019-06-27T12:52:17.472Z,2.90
2019-06-27T12:54:52.371Z,2.67
2019-06-27T12:57:25.044Z,2.70
2019-06-27T12:59:57.652Z,2.67
2019-06-27T13:02:29.962Z,2.43
2019-06-27T13:05:02.439Z,2.60
2019-06-27T13:07:34.670Z,2.53
2019-06-27T13:10:07.160Z,2.60
2019-06-27T13:12:40.505Z,2.43
2019-06-27T13:15:15.223Z,2.40
2019-06-27T13:17:48.581Z,2.47
2019-06-27T13:20:21.205Z,2.53
2019-06-27T13:22:53.462Z,2.43
2019-06-27T13:25:25.851Z,2.20
2019-06-27T13:27:58.128Z,2.07
2019-06-27T13:30:30.483Z,2.10
2019-06-27T13:33:03.145Z,2.40
2019-06-27T13:35:35.968Z,2.10
2019-06-27T13:38:09.465Z,2.42
2019-06-27T13:40:41.860Z,2.17
2019-06-27T13:43:14.031Z,2.00
2019-06-27T13:45:46.508Z,2.10
2019-06-27T13:48:18.770Z,2.30
2019-06-27T13:50:51.090Z,2.00
2019-06-27T13:53:23.349Z,2.30
2019-06-27T13:55:55.632Z,2.57
2019-06-27T13:58:27.838Z,2.00
2019-06-27T14:01:00.311Z,1.80
2019-06-27T14:03:48.315Z,2.20
2019-06-27T14:06:21.825Z,2.03
2019-06-27T14:08:54.189Z,2.20
2019-06-27T14:11:26.467Z,2.10
2019-06-27T14:13:58.745Z,2.23
2019-06-27T14:16:31.825Z,2.40
2019-06-27T14:19:04.532Z,2.70
2019-06-27T14:21:37.714Z,2.20
2019-06-27T14:24:09.980Z,2.40
2019-06-27T14:26:42.315Z,2.20
2019-06-27T14:29:14.596Z,2.20
2019-06-27T14:31:46.890Z,2.60
2019-06-27T14:34:19.179Z,2.20
2019-06-27T14:36:54.295Z,2.40
2019-06-27T14:39:27.298Z,2.50
2019-06-27T14:42:00.595Z,2.43
2019-06-27T14:44:32.981Z,2.70
2019-06-27T14:47:05.337Z,2.53
2019-06-27T14:49:37.731Z,2.27
2019-06-27T14:52:10.180Z,2.37
2019-06-27T14:54:46.278Z,2.30
2019-06-27T14:57:19.599Z,2.53
2019-06-27T14:59:52.086Z,2.62
2019-06-27T15:02:24.406Z,2.37
2019-06-27T15:04:56.748Z,2.70
2019-06-27T15:07:32.041Z,2.40
2019-06-27T15:10:12.952Z,2.30
2019-06-27T15:12:56.628Z,2.70
2019-06-27T15:15:30.000Z,2.40
2019-06-27T15:18:02.508Z,2.53
2019-06-27T15:20:35.695Z,2.20
2019-06-27T15:23:08.104Z,1.90
2019-06-27T15:25:42.235Z,2.13
2019-06-27T15:28:14.611Z,2.30
2019-06-27T15:30:47.870Z,2.40
2019-06-27T15:33:20.301Z,2.27
2019-06-27T15:35:52.986Z,2.20
2019-06-27T15:38:25.756Z,2.40
2019-06-27T15:40:58.545Z,2.00
2019-06-27T15:43:31.105Z,2.13
2019-06-27T15:46:03.612Z,2.07
2019-06-27T15:48:36.051Z,1.80
2019-06-27T15:51:09.220Z,1.83
2019-06-27T15:53:41.698Z,2.00
2019-06-27T15:56:14.058Z,2.10
2019-06-27T15:58:46.434Z,2.10
2019-06-27T16:01:18.722Z,2.20
2019-06-27T16:03:51.068Z,2.10
2019-06-27T16:06:23.536Z,2.13
2019-06-27T16:08:56.208Z,2.53
2019-06-27T16:11:29.337Z,2.30
2019-06-27T16:14:01.645Z,2.40
2019-06-27T16:16:33.956Z,2.20
2019-06-27T16:19:06.257Z,2.00
2019-06-27T16:21:38.495Z,1.93
2019-06-27T16:24:10.748Z,2.03
2019-06-27T16:26:42.995Z,1.87
2019-06-27T16:29:15.275Z,1.90
2019-06-27T16:31:50.216Z,1.73
2019-06-27T16:34:22.745Z,1.70
2019-06-27T16:36:55.216Z,1.70
2019-06-27T16:39:27.532Z,1.57
2019-06-27T16:41:59.823Z,1.93
2019-06-27T16:44:35.599Z,2.10
2019-06-27T16:47:08.332Z,1.70
2019-06-27T16:49:40.721Z,1.80
2019-06-27T16:52:13.986Z,1.60
2019-06-27T16:54:46.555Z,1.77
2019-06-27T16:57:18.807Z,1.60
2019-06-27T16:59:51.841Z,1.50
2019-06-27T17:02:24.091Z,1.73
2019-06-27T17:04:56.524Z,1.53
2019-06-27T17:07:28.794Z,1.70
2019-06-27T17:10:02.077Z,1.53
2019-06-27T17:12:34.292Z,1.43
2019-06-27T17:15:08.988Z,1.70
2019-06-27T17:17:41.833Z,1.40
2019-06-27T17:20:15.779Z,1.50
2019-06-27T17:22:48.146Z,1.60
2019-06-27T17:25:20.468Z,1.60
2019-06-27T17:27:52.775Z,1.67
2019-06-27T17:30:25.167Z,1.60
2019-06-27T17:32:58.167Z,1.80
2019-06-27T17:35:30.529Z,1.70
2019-06-27T17:38:02.842Z,1.97
2019-06-27T17:40:35.165Z,1.43
2019-06-27T17:43:07.522Z,1.90
2019-06-27T17:45:39.821Z,1.57
2019-06-27T17:48:12.063Z,1.60
2019-06-27T17:50:44.295Z,1.50
2019-06-27T17:53:16.618Z,1.80
2019-06-27T17:55:48.955Z,1.80
2019-06-27T17:58:21.348Z,1.90
2019-06-27T18:00:53.940Z,1.73
2019-06-27T18:03:26.384Z,1.70
2019-06-27T18:05:59.821Z,1.97
2019-06-27T18:08:32.230Z,2.13
2019-06-27T18:11:05.080Z,1.80
2019-06-27T18:13:37.352Z,1.93
2019-06-27T18:16:09.719Z,1.97
2019-06-27T18:18:42.097Z,2.00
2019-06-27T18:21:14.352Z,3.40
2019-06-27T18:23:46.681Z,2.23
2019-06-27T18:26:19.130Z,2.70
2019-06-27T18:28:53.906Z,2.47
2019-06-27T18:31:26.270Z,5.20
2019-06-27T18:33:58.670Z,5.03
2019-06-27T18:36:30.941Z,6.13
2019-06-27T18:39:03.514Z,2.90
2019-06-27T18:41:35.805Z,3.00
2019-06-27T18:44:08.173Z,2.30
2019-06-27T18:46:40.574Z,1.87
2019-06-27T18:49:13.486Z,1.90
2019-06-27T18:51:45.900Z,2.43
2019-06-27T18:54:18.208Z,2.00
2019-06-27T18:56:50.556Z,2.47
2019-06-27T18:59:22.924Z,1.90
2019-06-27T19:01:55.345Z,2.20
2019-06-27T19:04:28.963Z,2.10
2019-06-27T19:07:01.277Z,1.83
2019-06-27T19:09:33.594Z,1.90
2019-06-27T19:12:06.618Z,1.90
2019-06-27T19:14:38.956Z,2.00
2019-06-27T19:17:11.291Z,2.07
2019-06-27T19:19:48.715Z,2.50
2019-06-27T19:22:44.443Z,2.30
2019-06-27T19:25:33.332Z,2.58
2019-06-27T19:28:05.834Z,2.87
2019-06-27T19:30:38.195Z,2.37
2019-06-27T19:33:10.705Z,2.20
2019-06-27T19:35:42.990Z,2.23
2019-06-27T19:38:15.294Z,2.00
2019-06-27T19:40:47.586Z,2.00
2019-06-27T19:43:27.537Z,2.60
2019-06-27T19:46:01.060Z,2.00
2019-06-27T19:48:33.489Z,2.10
2019-06-27T19:51:06.394Z,2.00
2019-06-27T19:53:39.665Z,2.00
2019-06-27T19:56:11.955Z,2.03
2019-06-27T19:58:44.287Z,2.17
2019-06-27T20:01:18.189Z,2.03
2019-06-27T20:03:51.953Z,1.80
2019-06-27T20:06:25.758Z,1.90
2019-06-27T20:08:59.584Z,1.90
2019-06-27T20:11:32.844Z,1.95
2019-06-27T20:14:05.286Z,2.20
2019-06-27T20:16:38.249Z,2.03
2019-06-27T20:19:12.809Z,2.27
2019-06-27T20:21:45.248Z,1.98
2019-06-27T20:26:12.433Z,2.12
2019-06-27T20:28:44.800Z,2.17
2019-06-27T20:31:18.721Z,2.23
2019-06-27T20:33:53.213Z,2.20
2019-06-27T20:36:25.690Z,2.00
2019-06-27T20:38:58.061Z,2.30
2019-06-27T20:41:31.073Z,2.40
2019-06-27T20:44:03.389Z,2.43
2019-06-27T20:46:35.716Z,2.40
2019-06-27T20:49:09.720Z,2.07
2019-06-27T20:51:41.971Z,1.97
2019-06-27T20:54:14.244Z,2.27
2019-06-27T20:56:46.596Z,2.22
2019-06-27T20:59:18.837Z,2.00
2019-06-27T21:01:51.152Z,2.20
2019-06-27T21:04:23.385Z,2.23
2019-06-27T21:06:55.727Z,2.10
2019-06-27T21:09:28.009Z,1.73
2019-06-27T21:12:00.272Z,2.00
2019-06-27T21:14:33.223Z,2.00
2019-06-27T21:17:05.606Z,1.80
2019-06-27T21:19:38.012Z,2.00
2019-06-27T21:22:10.303Z,2.07
2019-06-27T21:24:42.547Z,1.60
2019-06-27T21:27:14.792Z,1.63
2019-06-27T21:29:47.126Z,1.80
2019-06-27T21:32:30.903Z,1.60
2019-06-27T21:35:04.471Z,1.70
2019-06-27T21:37:36.697Z,1.70
2019-06-27T21:40:08.919Z,1.70
2019-06-27T21:42:41.154Z,1.50
2019-06-27T21:45:14.928Z,1.67
2019-06-27T21:47:47.227Z,1.70
2019-06-27T21:50:19.521Z,1.60
2019-06-27T21:52:51.746Z,1.90
2019-06-27T21:55:23.977Z,2.00
2019-06-27T21:57:59.717Z,1.80
2019-06-27T22:00:36.948Z,1.60
2019-06-27T22:03:09.189Z,1.60
2019-06-27T22:05:41.544Z,1.93
2019-06-27T22:08:13.535Z,1.67
2019-06-27T22:10:45.817Z,2.20
2019-06-27T22:13:18.049Z,1.60
2019-06-27T22:15:50.339Z,1.67
2019-06-27T22:18:22.587Z,2.00
2019-06-27T22:20:54.892Z,1.80
2019-06-27T22:23:27.212Z,2.20
2019-06-27T22:25:59.484Z,2.03
2019-06-27T22:28:31.800Z,2.20
2019-06-27T22:31:04.100Z,2.30
2019-06-27T22:33:36.277Z,2.10
2019-06-27T22:36:08.476Z,2.07
2019-06-27T22:38:46.208Z,2.60
2019-06-27T22:41:23.864Z,2.40
2019-06-27T22:44:01.677Z,2.60
2019-06-27T22:46:39.523Z,2.50
2019-06-27T22:49:11.487Z,2.60
2019-06-27T22:52:03.065Z,2.50
2019-06-27T22:54:38.244Z,2.60
2019-06-27T22:57:10.447Z,2.85
2019-06-27T22:59:42.633Z,2.90
2019-06-27T23:02:14.846Z,2.93
2019-06-27T23:04:47.147Z,2.90
2019-06-27T23:07:19.365Z,3.20
2019-06-27T23:09:56.789Z,3.10
2019-06-27T23:12:29.871Z,3.00
2019-06-27T23:15:03.878Z,3.20
2019-06-27T23:17:36.107Z,3.20
2019-06-27T23:20:09.315Z,3.40
2019-06-27T23:22:41.546Z,2.80
2019-06-27T23:25:13.813Z,3.50
2019-06-27T23:27:46.399Z,3.30
2019-06-27T23:30:17.906Z,3.30
2019-06-27T23:32:50.144Z,3.70
2019-06-27T23:35:22.379Z,3.67
2019-06-27T23:37:54.611Z,3.50
2019-06-27T23:40:26.944Z,3.83
2019-06-27T23:42:59.196Z,3.67
2019-06-27T23:45:32.648Z,4.03
2019-06-27T23:48:04.835Z,3.87
2019-06-27T23:50:37.248Z,3.80
2019-06-27T23:53:09.433Z,3.40
2019-06-27T23:55:41.654Z,3.93
2019-06-27T23:58:14.525Z,3.90
